Terminal Aerodrome Forecast
Issued by NWS

Home | Current Version | Previous Version | Text Only | Print | Product List | Glossary On
Versions: 1 2 3 4 5 6 7 8 9 10 11 12 13 14 15
000
FTUS41 KBOX 242338
TAFFMH
TAF
KFMH 242338Z 2500/2524 16008KT P6SM BKN150
     FM250500 15006KT P6SM OVC080
     FM251000 14009KT P6SM VCSH OVC045
     FM251200 14011KT P6SM VCSH OVC030
     FM251300 14012G20KT P6SM -RA OVC025
     FM251500 14015G26KT 3SM -RA BR OVC015=

USA.gov is the U.S. government's official web portal to all federal, state and local government web resources and services.